Time;durP1;ratioP1;P1;durP2;ratioP2;P2;SDS_P1;SDS_P2;PMS_P1;PMS_P2;Temp;Humidity;BMP_temperature;BMP_pressure;BME280_temperature;BME280_humidity;BME280_pressure;Samples;Min_cycle;Max_cycle;Signal;HPM_P1;HPM_P2
2024/04/04 00:06:58;;;;;;;8.80;6.60;;;;;;;4.95;76.37;99020.30;447546;1235;139194;-57
2024/04/04 00:17:02;;;;;;;9.60;7.20;;;;;;;4.89;77.00;99017.94;444651;1239;5093643;-58
2024/04/04 00:27:06;;;;;;;7.90;5.50;;;;;;;4.85;77.90;99014.02;447102;1239;138874;-57
2024/04/04 00:37:19;;;;;;;8.20;6.20;;;;;;;4.80;78.55;99003.99;447285;1240;138783;-57
2024/04/04 00:47:23;;;;;;;8.40;6.30;;;;;;;4.79;78.87;99007.68;448067;1235;138702;-56
2024/04/04 00:57:29;;;;;;;8.00;5.90;;;;;;;4.78;79.33;99011.56;448325;1239;139611;-56
2024/04/04 01:07:34;;;;;;;8.20;5.60;;;;;;;4.78;79.94;99002.53;448217;1239;138720;-47
2024/04/04 01:17:37;;;;;;;6.30;5.70;;;;;;;4.76;80.08;99004.38;448006;1240;138882;-46
2024/04/04 01:27:40;;;;;;;5.70;5.10;;;;;;;4.73;80.61;99014.91;446972;1239;139856;-56
2024/04/04 01:37:44;;;;;;;6.60;5.10;;;;;;;4.78;81.01;99009.14;446879;1240;138897;-56
2024/04/04 01:47:48;;;;;;;7.10;6.30;;;;;;;4.86;81.78;99009.44;447057;1235;138957;-58
2024/04/04 01:57:51;;;;;;;7.40;5.80;;;;;;;4.97;82.27;99012.16;447867;1235;140016;-57
2024/04/04 02:07:54;;;;;;;7.90;6.60;;;;;;;5.07;82.71;99002.67;446910;1236;138826;-57
2024/04/04 02:18:00;;;;;;;8.00;5.60;;;;;;;5.17;83.28;98996.43;447547;1239;139415;-57
2024/04/04 02:28:04;;;;;;;7.30;5.00;;;;;;;5.23;83.49;98984.19;446983;1236;139024;-57
2024/04/04 02:38:07;;;;;;;6.00;5.40;;;;;;;5.25;83.99;98972.45;448110;1239;139525;-52
2024/04/04 02:48:11;;;;;;;6.10;5.50;;;;;;;5.18;84.44;98972.98;446708;1239;139636;-53
2024/04/04 02:58:14;;;;;;;5.70;5.10;;;;;;;5.11;85.16;98967.27;446699;1239;139250;-57
2024/04/04 03:08:18;;;;;;;6.70;5.20;;;;;;;5.04;85.84;98961.88;446806;1239;139434;-56
2024/04/04 03:18:22;;;;;;;5.60;5.10;;;;;;;5.01;86.89;98960.80;446907;1236;139298;-56
2024/04/04 03:28:25;;;;;;;4.60;4.20;;;;;;;5.04;87.61;98955.13;447310;1236;139470;-55
2024/04/04 03:38:29;;;;;;;6.90;6.30;;;;;;;5.02;88.41;98955.90;446950;1239;138812;-66
2024/04/04 03:48:34;;;;;;;9.80;6.00;;;;;;;5.09;89.63;98963.55;447923;1239;139007;-66
2024/04/04 03:58:38;;;;;;;6.80;6.00;;;;;;;5.19;90.24;98969.98;446850;1235;139035;-67
2024/04/04 04:08:41;;;;;;;6.60;6.00;;;;;;;5.28;90.86;98964.64;447792;1235;138916;-66
2024/04/04 04:18:44;;;;;;;8.50;7.00;;;;;;;5.32;91.38;98957.48;446884;1235;139229;-67
2024/04/04 04:28:48;;;;;;;7.80;6.90;;;;;;;5.35;92.21;98968.08;447945;1239;139509;-67
2024/04/04 04:38:51;;;;;;;6.60;6.00;;;;;;;5.40;92.87;98969.56;447051;1239;139274;-54
2024/04/04 04:48:54;;;;;;;8.40;6.50;;;;;;;5.48;93.54;98970.90;446787;1235;139565;-52
2024/04/04 04:58:58;;;;;;;8.10;6.60;;;;;;;5.59;94.35;98968.05;447273;1239;141115;-47
2024/04/04 05:09:03;;;;;;;8.00;6.70;;;;;;;5.71;95.18;98963.06;447586;1235;139457;-45
2024/04/04 05:19:06;;;;;;;9.20;7.20;;;;;;;5.88;96.23;98964.46;447763;1235;139334;-49
2024/04/04 05:29:12;;;;;;;10.20;8.80;;;;;;;6.07;97.08;98970.72;447211;1239;139509;-55
2024/04/04 05:39:15;;;;;;;12.50;8.70;;;;;;;6.31;97.28;98976.85;447069;1235;139123;-53
2024/04/04 05:49:18;;;;;;;9.70;7.90;;;;;;;6.71;98.12;98973.92;447409;1239;139588;-67
2024/04/04 05:59:22;;;;;;;9.50;8.20;;;;;;;7.03;97.48;98975.02;447005;1236;139761;-68
2024/04/04 06:09:25;;;;;;;9.90;8.80;;;;;;;7.50;98.59;98975.34;447252;1235;139786;-59
2024/04/04 06:19:28;;;;;;;10.30;8.30;;;;;;;8.26;97.77;98983.41;447251;1239;139287;-61
2024/04/04 06:29:31;;;;;;;11.60;9.30;;;;;;;8.65;96.57;98986.13;447266;1239;139762;-58
2024/04/04 06:39:35;;;;;;;13.20;11.80;;;;;;;9.12;95.78;98984.95;447180;1239;139853;-60
2024/04/04 06:49:39;;;;;;;14.80;12.10;;;;;;;9.88;95.00;98990.40;447438;1239;140723;-61
2024/04/04 06:59:42;;;;;;;12.00;10.30;;;;;;;10.53;92.85;98993.50;447143;1239;140132;-59
2024/04/04 07:09:46;;;;;;;12.30;9.60;;;;;;;10.95;90.72;98998.00;447351;1239;139859;-62
2024/04/04 07:19:54;;;;;;;10.90;9.20;;;;;;;11.28;89.44;98997.28;448850;1238;139756;-61
2024/04/04 07:29:57;;;;;;;13.00;8.50;;;;;;;11.87;88.26;98997.45;447858;1236;140789;-59
2024/04/04 07:40:03;;;;;;;10.50;8.30;;;;;;;12.47;86.44;99004.11;448603;1239;140113;-58
2024/04/04 07:50:08;;;;;;;11.40;6.60;;;;;;;13.35;85.07;99008.84;449179;1238;139402;-55
2024/04/04 08:00:13;;;;;;;8.90;6.10;;;;;;;15.24;84.99;99001.94;449095;1239;140410;-58
2024/04/04 08:10:19;;;;;;;5.90;4.60;;;;;;;19.78;79.13;98988.27;461837;1235;139306;-61
2024/04/04 08:20:24;;;;;;;5.50;4.20;;;;;;;20.81;68.84;98983.79;461963;1236;140086;-64
2024/04/04 08:30:28;;;;;;;5.10;2.50;;;;;;;20.78;65.62;98978.20;461886;1235;139547;-61
2024/04/04 08:40:35;;;;;;;4.70;3.50;;;;;;;22.87;63.15;98970.98;461897;1235;138585;-68
2024/04/04 08:50:45;;;;;;;3.10;2.80;;;;;;;22.92;57.60;98973.02;462028;1235;138478;-66
2024/04/04 09:00:53;;;;;;;3.10;2.10;;;;;;;22.04;55.45;98970.42;461868;1235;139179;-66
2024/04/04 09:11:00;;;;;;;4.00;2.40;;;;;;;20.90;53.31;98970.24;461864;1235;139255;-60
2024/04/04 09:21:04;;;;;;;2.00;1.70;;;;;;;19.36;53.35;98985.75;462020;1235;139329;-60
2024/04/04 09:31:10;;;;;;;2.60;2.00;;;;;;;18.89;54.99;98988.39;461851;1235;139439;-60
2024/04/04 09:41:15;;;;;;;1.60;1.50;;;;;;;19.66;54.55;98979.46;461914;1235;139313;-60
2024/04/04 09:51:20;;;;;;;1.60;1.50;;;;;;;19.94;53.62;98971.96;462059;1235;138663;-59
2024/04/04 10:01:25;;;;;;;6.50;2.20;;;;;;;20.21;52.19;98968.33;462139;1239;138505;-60
2024/04/04 10:11:29;;;;;;;1.10;1.00;;;;;;;20.01;51.78;98961.73;461990;1236;138655;-60
2024/04/04 10:21:32;;;;;;;2.30;1.30;;;;;;;20.09;50.84;98963.30;461840;1235;138541;-60
2024/04/04 10:31:38;;;;;;;2.90;0.90;;;;;;;19.60;50.48;98952.58;462086;1236;138562;-61
2024/04/04 10:41:42;;;;;;;1.40;0.70;;;;;;;19.72;50.45;98955.34;462077;1236;138894;-58
2024/04/04 10:51:51;;;;;;;227.50;37.90;;;;;;;19.33;49.69;98953.31;462093;1235;139965;-59
2024/04/04 11:01:55;;;;;;;9.00;1.80;;;;;;;18.44;49.96;98956.42;462119;1235;139125;-58
2024/04/04 11:12:00;;;;;;;1.80;1.00;;;;;;;17.59;50.67;98958.40;462119;1236;139026;-57
2024/04/04 11:22:04;;;;;;;1.40;1.10;;;;;;;17.33;51.61;98954.69;462018;1236;139153;-66
2024/04/04 11:32:08;;;;;;;3.50;1.50;;;;;;;17.73;52.21;98955.20;462068;1236;139265;-64
2024/04/04 11:42:12;;;;;;;0.70;0.60;;;;;;;17.84;52.07;98949.40;461956;1236;139180;-63
2024/04/04 11:52:15;;;;;;;2.00;1.40;;;;;;;18.04;51.78;98952.52;461969;1235;139189;-60
2024/04/04 12:02:22;;;;;;;0.90;0.90;;;;;;;18.01;51.87;98953.38;462044;1238;138945;-61
2024/04/04 12:12:25;;;;;;;1.50;1.30;;;;;;;18.30;51.43;98954.77;457914;1236;5103827;-59
2024/04/04 12:22:29;;;;;;;1.50;1.00;;;;;;;17.91;51.36;98960.75;461942;1239;139003;-59
2024/04/04 12:32:32;;;;;;;3.20;1.20;;;;;;;17.60;51.49;98959.02;462085;1235;138410;-60
2024/04/04 12:42:36;;;;;;;2.80;0.90;;;;;;;17.45;51.32;98946.40;461842;1235;138474;-61
2024/04/04 12:52:39;;;;;;;1.80;1.20;;;;;;;17.58;51.71;98940.48;461858;1239;138382;-58
2024/04/04 13:02:43;;;;;;;1.40;0.80;;;;;;;17.41;51.84;98946.48;462075;1236;138901;-61
2024/04/04 13:12:46;;;;;;;5.60;1.60;;;;;;;16.86;52.30;98942.05;461939;1236;139158;-61
2024/04/04 13:22:52;;;;;;;2.00;1.20;;;;;;;16.60;52.99;98946.05;461926;1236;140538;-64
2024/04/04 13:32:55;;;;;;;2.40;1.10;;;;;;;16.56;54.02;98940.90;462048;1239;139784;-63
2024/04/04 13:43:00;;;;;;;3.80;1.20;;;;;;;16.91;54.18;98936.28;461939;1236;139049;-62
2024/04/04 13:53:05;;;;;;;0.90;0.50;;;;;;;17.18;54.00;98920.27;461897;1239;139468;-61
2024/04/04 14:03:08;;;;;;;3.00;0.70;;;;;;;17.31;54.22;98905.00;461971;1235;139932;-63
2024/04/04 14:13:11;;;;;;;3.00;0.80;;;;;;;17.72;54.10;98897.22;461871;1235;138994;-58
2024/04/04 14:23:14;;;;;;;1.00;0.70;;;;;;;17.98;53.94;98879.42;461915;1239;139128;-64
2024/04/04 14:33:17;;;;;;;1.60;1.50;;;;;;;17.67;53.31;98881.64;461989;1236;139180;-57
2024/04/04 14:43:21;;;;;;;2.90;1.10;;;;;;;17.03;54.01;98884.84;461834;1235;139045;-59
2024/04/04 14:53:24;;;;;;;1.70;1.20;;;;;;;16.76;55.04;98878.50;461861;1239;139643;-60
2024/04/04 15:03:28;;;;;;;2.10;1.70;;;;;;;17.07;55.54;98867.48;461862;1236;139308;-63
2024/04/04 15:13:31;;;;;;;2.20;0.50;;;;;;;17.21;55.33;98865.51;461870;1236;139778;-61
2024/04/04 15:23:34;;;;;;;5.20;0.90;;;;;;;17.16;55.39;98868.85;461859;1239;139136;-62
2024/04/04 15:33:37;;;;;;;1.10;0.80;;;;;;;16.92;55.60;98872.19;462003;1237;138745;-67
2024/04/04 15:43:41;;;;;;;0.70;0.70;;;;;;;16.48;56.06;98866.44;458086;1237;138900;-63
2024/04/04 15:53:44;;;;;;;0.60;0.50;;;;;;;16.21;56.42;98863.09;447000;1241;139032;-62
2024/04/04 16:03:48;;;;;;;1.50;1.10;;;;;;;15.80;56.85;98864.81;446849;1240;139087;-60
2024/04/04 16:13:52;;;;;;;1.80;0.90;;;;;;;15.42;57.91;98864.94;447460;1239;138550;-60
2024/04/04 16:23:55;;;;;;;2.40;1.20;;;;;;;15.24;58.98;98866.63;447055;1241;138467;-58
2024/04/04 16:33:58;;;;;;;1.20;1.10;;;;;;;15.13;59.80;98865.20;447351;1240;138794;-58
2024/04/04 16:44:02;;;;;;;2.10;2.00;;;;;;;14.98;60.30;98864.70;447086;1239;138607;-65
2024/04/04 16:54:05;;;;;;;3.70;1.90;;;;;;;14.79;60.77;98865.20;447245;1239;139705;-65
2024/04/04 17:04:11;;;;;;;6.60;3.70;;;;;;;14.61;61.57;98857.63;446818;1241;138869;-64
2024/04/04 17:14:14;;;;;;;10.50;4.40;;;;;;;14.40;62.30;98858.30;447174;1240;138575;-65
2024/04/04 17:24:17;;;;;;;9.10;6.80;;;;;;;14.19;62.99;98859.98;446965;1239;138716;-62
2024/04/04 17:34:22;;;;;;;13.50;10.00;;;;;;;14.01;63.63;98857.79;446838;1239;138452;-64
2024/04/04 17:44:26;;;;;;;15.80;6.50;;;;;;;13.89;64.29;98865.16;447077;1239;139011;-65
2024/04/04 17:54:34;;;;;;;9.50;7.10;;;;;;;13.76;64.83;98855.38;446780;1239;138823;-65
2024/04/04 18:04:37;;;;;;;8.10;6.10;;;;;;;13.61;65.43;98846.56;447073;1239;138837;-64
2024/04/04 18:14:42;;;;;;;6.80;5.00;;;;;;;13.40;66.20;98847.25;447089;1235;139655;-57
2024/04/04 18:24:46;;;;;;;7.50;6.30;;;;;;;13.28;66.88;98852.00;447315;1239;140833;-56
2024/04/04 18:34:51;;;;;;;5.30;3.50;;;;;;;13.23;67.46;98864.57;446855;1239;139588;-57
2024/04/04 18:44:54;;;;;;;3.60;2.70;;;;;;;13.24;67.80;98869.77;447338;1235;138312;-57
2024/04/04 18:54:58;;;;;;;3.90;3.10;;;;;;;13.21;68.09;98864.38;448069;1239;140057;-56
2024/04/04 19:05:01;;;;;;;4.20;2.90;;;;;;;13.14;68.11;98867.55;446852;1239;140161;-56
2024/04/04 19:15:07;;;;;;;3.50;2.80;;;;;;;13.12;68.52;98877.12;447700;1239;139275;-58
2024/04/04 19:25:11;;;;;;;3.00;2.60;;;;;;;12.96;69.95;98877.70;448042;1238;140582;-57
2024/04/04 19:35:15;;;;;;;7.10;3.80;;;;;;;12.59;71.78;98875.00;447266;1235;139694;-57
2024/04/04 19:45:19;;;;;;;5.20;3.20;;;;;;;12.37;73.63;98869.67;448169;1239;139330;-59
2024/04/04 19:55:25;;;;;;;5.30;3.50;;;;;;;12.19;75.12;98858.34;447369;1235;139717;-58
2024/04/04 20:05:29;;;;;;;4.60;3.10;;;;;;;11.97;76.50;98861.79;446833;1239;139821;-59
2024/04/04 20:15:32;;;;;;;4.30;3.40;;;;;;;11.85;77.88;98862.80;447273;1240;139783;-64
2024/04/04 20:25:37;;;;;;;7.10;5.80;;;;;;;11.69;79.07;98848.31;447460;1235;139802;-63
2024/04/04 20:35:41;;;;;;;11.70;8.60;;;;;;;11.50;80.27;98834.15;447987;1238;140172;-55
2024/04/04 20:45:48;;;;;;;14.40;9.50;;;;;;;11.32;81.34;98830.52;447998;1235;141613;-64
2024/04/04 20:55:55;;;;;;;7.50;5.70;;;;;;;11.20;82.46;98829.86;447243;1236;140392;-64
2024/04/04 21:05:58;;;;;;;6.60;5.20;;;;;;;11.14;83.52;98832.23;447624;1235;139994;-63
2024/04/04 21:16:02;;;;;;;4.60;3.60;;;;;;;11.10;84.11;98829.44;446652;1239;139883;-63
2024/04/04 21:26:08;;;;;;;5.60;4.60;;;;;;;11.00;84.65;98833.34;447184;1235;140728;-62
2024/04/04 21:36:15;;;;;;;5.00;4.20;;;;;;;10.89;85.20;98836.33;446835;1235;139235;-63
2024/04/04 21:46:19;;;;;;;5.80;3.80;;;;;;;10.87;86.12;98847.16;447058;1235;140098;-58
2024/04/04 21:56:22;;;;;;;4.70;3.50;;;;;;;10.87;86.64;98841.90;447558;1239;139229;-57
2024/04/04 22:06:26;;;;;;;7.50;3.70;;;;;;;10.81;86.75;98839.02;447344;1239;139498;-58
2024/04/04 22:16:29;;;;;;;5.00;4.10;;;;;;;10.72;87.49;98843.01;448035;1236;139362;-56
2024/04/04 22:26:34;;;;;;;3.30;2.60;;;;;;;10.71;88.21;98845.69;449763;1236;139857;-56
2024/04/04 22:36:37;;;;;;;3.00;2.60;;;;;;;10.79;88.79;98847.95;449946;1238;139333;-57
2024/04/04 22:46:41;;;;;;;3.50;2.00;;;;;;;10.87;89.31;98850.98;448932;1235;139902;-58
2024/04/04 22:56:44;;;;;;;3.50;2.30;;;;;;;10.93;89.95;98860.65;449201;1239;139805;-59
2024/04/04 23:06:47;;;;;;;2.00;1.60;;;;;;;11.01;90.56;98863.73;448757;1236;140288;-60
2024/04/04 23:16:51;;;;;;;4.20;2.40;;;;;;;11.09;91.10;98868.05;449500;1235;140078;-56
2024/04/04 23:26:54;;;;;;;2.10;1.80;;;;;;;11.17;91.37;98873.94;449192;1239;140516;-59
2024/04/04 23:36:57;;;;;;;3.20;1.90;;;;;;;11.23;91.64;98882.73;451721;1235;140281;-59
2024/04/04 23:47:01;;;;;;;2.40;1.20;;;;;;;11.26;92.76;98888.23;448599;1235;139467;-58
2024/04/04 23:57:05;;;;;;;2.90;1.30;;;;;;;11.18;93.68;98924.05;447293;1235;139934;-59
